createdAt,value
2022-11-05T00:00:06.690Z,56.00
2022-11-05T00:10:06.686Z,121.90
2022-11-05T00:20:06.699Z,113.40
2022-11-05T00:30:06.698Z,101.70
2022-11-05T00:40:06.720Z,90.40
2022-11-05T00:50:06.716Z,45.30
2022-11-05T01:00:06.715Z,77.60
2022-11-05T01:10:06.714Z,33.50
2022-11-05T01:20:06.707Z,22.50
2022-11-05T01:30:06.725Z,21.60
2022-11-05T01:40:06.733Z,18.60
2022-11-05T01:50:06.725Z,12.20
2022-11-05T02:00:06.739Z,7.60
2022-11-05T02:10:06.741Z,4.90
2022-11-05T02:20:06.767Z,3.60
2022-11-05T02:30:06.730Z,2.70
2022-11-05T02:40:06.744Z,3.40
2022-11-05T02:50:06.758Z,3.60
2022-11-05T03:00:06.750Z,3.20
2022-11-05T03:10:06.766Z,3.30
2022-11-05T03:20:06.759Z,3.20
2022-11-05T03:30:06.771Z,2.90
2022-11-05T03:40:06.769Z,3.00
2022-11-05T03:50:06.837Z,3.60
2022-11-05T04:00:06.796Z,3.50
2022-11-05T04:10:06.788Z,2.70
2022-11-05T04:30:06.793Z,2.80
2022-11-05T04:40:06.794Z,3.80
2022-11-05T04:50:06.779Z,3.50
2022-11-05T05:00:06.782Z,3.00
2022-11-05T05:10:06.795Z,3.90
2022-11-05T05:20:06.810Z,4.80
2022-11-05T05:30:06.801Z,4.60
2022-11-05T05:40:06.796Z,4.40
2022-11-05T05:50:06.817Z,3.90
2022-11-05T06:00:06.824Z,4.80
2022-11-05T06:10:06.809Z,4.30
2022-11-05T06:20:06.836Z,3.60
2022-11-05T06:30:06.830Z,4.20
2022-11-05T06:40:06.912Z,5.80
2022-11-05T06:50:06.824Z,4.80
2022-11-05T07:00:08.156Z,4.50
2022-11-05T07:10:06.848Z,4.70
2022-11-05T07:20:06.843Z,5.60
2022-11-05T07:30:06.931Z,5.40
2022-11-05T07:40:06.837Z,4.10
2022-11-05T07:50:06.839Z,4.90
2022-11-05T08:00:06.860Z,4.60
2022-11-05T08:10:06.859Z,4.60
2022-11-05T08:20:06.887Z,6.00
2022-11-05T08:30:06.874Z,4.30
2022-11-05T08:40:06.869Z,4.90
2022-11-05T08:50:06.880Z,6.10
2022-11-05T09:00:06.902Z,6.00
2022-11-05T09:10:06.871Z,7.20
2022-11-05T09:20:06.880Z,6.50
2022-11-05T09:30:06.875Z,5.10
2022-11-05T09:40:06.904Z,5.60
2022-11-05T09:50:06.923Z,6.40
2022-11-05T10:00:06.903Z,7.20
2022-11-05T10:10:06.905Z,5.30
2022-11-05T10:20:06.917Z,7.30
2022-11-05T10:30:06.898Z,7.20
2022-11-05T10:40:06.926Z,8.70
2022-11-05T10:50:06.917Z,10.10
2022-11-05T11:00:06.919Z,8.20
2022-11-05T11:10:06.959Z,9.50
2022-11-05T11:20:06.948Z,10.40
2022-11-05T11:30:06.924Z,11.00
2022-11-05T11:40:10.033Z,9.90
2022-11-05T11:50:06.974Z,11.00
2022-11-05T12:00:09.504Z,11.10
2022-11-05T12:10:06.986Z,7.30
2022-11-05T12:20:07.009Z,10.60
2022-11-05T12:30:07.051Z,7.10
2022-11-05T12:40:07.000Z,8.90
2022-11-05T12:50:07.074Z,9.60
2022-11-05T13:00:07.060Z,8.50
2022-11-05T13:10:06.972Z,11.70
2022-11-05T13:20:06.988Z,10.30
2022-11-05T13:30:06.987Z,9.10
2022-11-05T13:40:07.005Z,8.90
2022-11-05T13:50:07.074Z,9.60
2022-11-05T14:00:07.003Z,9.80
2022-11-05T14:10:07.013Z,12.20
2022-11-05T14:20:07.040Z,11.10
2022-11-05T14:30:07.062Z,9.30
2022-11-05T14:40:07.016Z,9.30
2022-11-05T14:50:07.028Z,17.30
2022-11-05T15:00:07.029Z,13.80
2022-11-05T15:10:10.294Z,13.00
2022-11-05T15:20:07.034Z,15.00
2022-11-05T15:30:07.032Z,46.60
2022-11-05T15:40:07.040Z,36.50
2022-11-05T15:50:13.060Z,12.00
2022-11-05T16:00:07.034Z,11.90
2022-11-05T16:10:12.478Z,15.90
2022-11-05T16:20:07.048Z,14.50
2022-11-05T16:30:07.050Z,14.80
2022-11-05T16:40:07.038Z,15.40
2022-11-05T16:50:07.165Z,16.90
2022-11-05T17:00:07.066Z,26.40
2022-11-05T17:10:07.073Z,22.60
2022-11-05T17:20:07.073Z,29.60
2022-11-05T17:30:07.061Z,29.50
2022-11-05T17:40:07.104Z,18.40
2022-11-05T17:50:07.078Z,19.60
2022-11-05T18:00:07.174Z,19.20
2022-11-05T18:10:07.072Z,20.70
2022-11-05T18:20:07.183Z,18.30
2022-11-05T18:30:07.126Z,23.70
2022-11-05T18:40:07.136Z,18.60
2022-11-05T18:50:07.115Z,18.40
2022-11-05T19:00:07.111Z,32.00
2022-11-05T19:10:07.129Z,35.40
2022-11-05T19:20:07.126Z,34.40
2022-11-05T19:30:07.156Z,28.30
2022-11-05T19:40:07.177Z,17.50
2022-11-05T19:50:07.149Z,40.70
2022-11-05T20:00:07.149Z,44.40
2022-11-05T20:10:07.162Z,20.90
2022-11-05T20:20:07.135Z,32.60
2022-11-05T20:30:07.142Z,18.30
2022-11-05T20:40:07.198Z,20.50
2022-11-05T20:50:07.149Z,21.40
2022-11-05T21:00:07.145Z,19.20
2022-11-05T21:10:07.145Z,17.90
2022-11-05T21:20:07.171Z,18.40
2022-11-05T21:30:07.195Z,22.20
2022-11-05T21:40:07.148Z,21.20
2022-11-05T22:00:07.170Z,22.50
2022-11-05T22:10:09.713Z,25.30
2022-11-05T22:20:07.177Z,22.90
2022-11-05T22:30:07.195Z,23.10
2022-11-05T22:40:07.274Z,26.70
2022-11-05T22:50:07.181Z,26.00
2022-11-05T23:00:07.203Z,21.20
2022-11-05T23:10:07.192Z,29.50
2022-11-05T23:20:07.174Z,22.20
2022-11-05T23:30:07.264Z,27.00
2022-11-05T23:40:07.207Z,21.10
2022-11-05T23:50:07.198Z,27.90
